sensor_id;sensor_type;location;lat;lon;timestamp;pressure;altitude;pressure_sealevel;temperature;humidity
2339;BME280;1180;51.438;6.978;2023-04-05T00:01:26;101081.50;;;7.76;55.27
2339;BME280;1180;51.438;6.978;2023-04-05T00:03:53;101068.75;;;7.74;54.89
2339;BME280;1180;51.438;6.978;2023-04-05T00:06:20;101078.47;;;7.64;55.60
2339;BME280;1180;51.438;6.978;2023-04-05T00:09:02;101071.84;;;7.59;55.18
2339;BME280;1180;51.438;6.978;2023-04-05T00:11:29;101071.88;;;7.57;54.88
2339;BME280;1180;51.438;6.978;2023-04-05T00:13:55;101074.44;;;7.57;54.77
2339;BME280;1180;51.438;6.978;2023-04-05T00:16:21;101069.66;;;7.48;55.83
2339;BME280;1180;51.438;6.978;2023-04-05T00:18:47;101062.78;;;7.50;55.31
2339;BME280;1180;51.438;6.978;2023-04-05T00:21:19;101070.31;;;7.53;54.86
2339;BME280;1180;51.438;6.978;2023-04-05T00:23:52;101059.22;;;7.54;55.05
2339;BME280;1180;51.438;6.978;2023-04-05T00:26:19;101067.09;;;7.48;55.26
2339;BME280;1180;51.438;6.978;2023-04-05T00:28:48;101067.34;;;7.40;55.51
2339;BME280;1180;51.438;6.978;2023-04-05T00:31:14;101066.09;;;7.52;55.92
2339;BME280;1180;51.438;6.978;2023-04-05T00:33:40;101063.91;;;7.41;55.94
2339;BME280;1180;51.438;6.978;2023-04-05T00:36:09;101072.72;;;7.32;56.10
2339;BME280;1180;51.438;6.978;2023-04-05T00:38:35;101064.88;;;7.37;56.18
2339;BME280;1180;51.438;6.978;2023-04-05T00:41:01;101065.88;;;7.33;55.99
2339;BME280;1180;51.438;6.978;2023-04-05T00:43:26;101063.13;;;7.39;56.22
2339;BME280;1180;51.438;6.978;2023-04-05T00:45:52;101056.34;;;7.38;56.50
2339;BME280;1180;51.438;6.978;2023-04-05T00:48:17;101051.41;;;7.33;56.86
2339;BME280;1180;51.438;6.978;2023-04-05T00:50:43;101040.47;;;7.28;56.54
2339;BME280;1180;51.438;6.978;2023-04-05T00:53:10;101043.03;;;7.28;56.58
2339;BME280;1180;51.438;6.978;2023-04-05T00:55:37;101043.88;;;7.29;56.40
2339;BME280;1180;51.438;6.978;2023-04-05T00:58:05;101045.50;;;7.31;56.69
2339;BME280;1180;51.438;6.978;2023-04-05T01:00:35;101044.53;;;7.08;56.94
2339;BME280;1180;51.438;6.978;2023-04-05T01:03:04;101042.91;;;7.06;56.87
2339;BME280;1180;51.438;6.978;2023-04-05T01:05:35;101037.28;;;6.96;56.93
2339;BME280;1180;51.438;6.978;2023-04-05T01:08:16;101049.06;;;7.00;57.53
2339;BME280;1180;51.438;6.978;2023-04-05T01:10:45;101053.00;;;7.09;57.48
2339;BME280;1180;51.438;6.978;2023-04-05T01:13:16;101044.72;;;7.02;57.66
2339;BME280;1180;51.438;6.978;2023-04-05T01:15:42;101041.50;;;6.97;57.93
2339;BME280;1180;51.438;6.978;2023-04-05T01:18:07;101044.06;;;6.96;58.26
2339;BME280;1180;51.438;6.978;2023-04-05T01:20:38;101045.94;;;6.90;58.54
2339;BME280;1180;51.438;6.978;2023-04-05T01:23:45;101036.91;;;6.80;58.69
2339;BME280;1180;51.438;6.978;2023-04-05T01:32:01;101021.72;;;6.75;58.94
2339;BME280;1180;51.438;6.978;2023-04-05T01:37:16;101025.66;;;6.86;59.22
2339;BME280;1180;51.438;6.978;2023-04-05T01:39:43;101023.50;;;6.73;59.32
2339;BME280;1180;51.438;6.978;2023-04-05T01:42:11;101021.06;;;6.69;59.41
2339;BME280;1180;51.438;6.978;2023-04-05T01:44:37;101016.06;;;6.65;59.57
2339;BME280;1180;51.438;6.978;2023-04-05T01:47:02;101016.28;;;6.59;59.80
2339;BME280;1180;51.438;6.978;2023-04-05T01:49:28;101022.19;;;6.60;60.30
2339;BME280;1180;51.438;6.978;2023-04-05T01:51:53;101009.16;;;6.41;61.78
2339;BME280;1180;51.438;6.978;2023-04-05T01:54:18;101017.34;;;6.52;61.36
2339;BME280;1180;51.438;6.978;2023-04-05T01:56:44;101014.47;;;6.63;60.98
2339;BME280;1180;51.438;6.978;2023-04-05T01:59:10;101013.84;;;6.55;60.83
2339;BME280;1180;51.438;6.978;2023-04-05T02:01:35;101006.44;;;6.47;61.51
2339;BME280;1180;51.438;6.978;2023-04-05T02:04:00;101011.78;;;6.38;61.75
2339;BME280;1180;51.438;6.978;2023-04-05T02:06:27;101014.41;;;6.36;62.18
2339;BME280;1180;51.438;6.978;2023-04-05T02:08:52;101008.06;;;6.19;62.35
2339;BME280;1180;51.438;6.978;2023-04-05T02:11:18;101003.75;;;6.21;63.21
2339;BME280;1180;51.438;6.978;2023-04-05T02:13:43;101004.16;;;6.07;63.29
2339;BME280;1180;51.438;6.978;2023-04-05T02:16:08;101002.97;;;6.19;63.47
2339;BME280;1180;51.438;6.978;2023-04-05T02:18:35;100996.28;;;6.15;63.31
2339;BME280;1180;51.438;6.978;2023-04-05T02:21:07;100994.59;;;6.16;63.28
2339;BME280;1180;51.438;6.978;2023-04-05T02:23:35;100998.41;;;6.01;63.83
2339;BME280;1180;51.438;6.978;2023-04-05T02:26:01;100997.72;;;5.94;63.91
2339;BME280;1180;51.438;6.978;2023-04-05T02:28:27;100999.06;;;6.07;64.04
2339;BME280;1180;51.438;6.978;2023-04-05T02:30:53;100991.38;;;6.09;63.53
2339;BME280;1180;51.438;6.978;2023-04-05T02:33:19;100992.19;;;6.10;63.72
2339;BME280;1180;51.438;6.978;2023-04-05T02:35:47;100994.13;;;6.01;64.41
2339;BME280;1180;51.438;6.978;2023-04-05T02:38:13;100995.91;;;5.98;64.35
2339;BME280;1180;51.438;6.978;2023-04-05T02:40:39;100996.66;;;6.03;64.64
2339;BME280;1180;51.438;6.978;2023-04-05T02:43:06;100995.88;;;6.01;64.93
2339;BME280;1180;51.438;6.978;2023-04-05T02:45:31;100992.44;;;6.02;64.76
2339;BME280;1180;51.438;6.978;2023-04-05T02:47:57;100995.72;;;6.05;64.43
2339;BME280;1180;51.438;6.978;2023-04-05T02:50:22;100996.13;;;5.90;64.76
2339;BME280;1180;51.438;6.978;2023-04-05T02:52:50;100993.78;;;5.82;65.47
2339;BME280;1180;51.438;6.978;2023-04-05T02:55:16;100995.63;;;5.77;65.78
2339;BME280;1180;51.438;6.978;2023-04-05T02:57:42;100988.69;;;5.82;65.76
2339;BME280;1180;51.438;6.978;2023-04-05T03:00:09;100995.34;;;5.88;65.96
2339;BME280;1180;51.438;6.978;2023-04-05T03:02:36;100991.75;;;5.93;65.46
2339;BME280;1180;51.438;6.978;2023-04-05T03:05:02;100987.59;;;5.91;65.03
2339;BME280;1180;51.438;6.978;2023-04-05T03:07:28;100999.63;;;5.86;65.33
2339;BME280;1180;51.438;6.978;2023-04-05T03:09:54;100990.56;;;5.75;65.53
2339;BME280;1180;51.438;6.978;2023-04-05T03:12:21;100991.59;;;5.68;65.77
2339;BME280;1180;51.438;6.978;2023-04-05T03:14:47;100990.06;;;5.62;66.38
2339;BME280;1180;51.438;6.978;2023-04-05T03:17:12;100989.31;;;5.59;66.86
2339;BME280;1180;51.438;6.978;2023-04-05T03:19:38;100985.09;;;5.58;67.48
2339;BME280;1180;51.438;6.978;2023-04-05T03:22:04;100991.94;;;5.56;67.04
2339;BME280;1180;51.438;6.978;2023-04-05T03:24:30;100981.78;;;5.54;66.80
2339;BME280;1180;51.438;6.978;2023-04-05T03:26:56;100980.47;;;5.39;67.43
2339;BME280;1180;51.438;6.978;2023-04-05T03:29:24;100987.59;;;5.59;67.22
2339;BME280;1180;51.438;6.978;2023-04-05T03:31:50;100978.41;;;5.54;67.33
2339;BME280;1180;51.438;6.978;2023-04-05T03:34:15;100982.06;;;5.43;67.80
2339;BME280;1180;51.438;6.978;2023-04-05T03:36:41;100978.63;;;5.46;67.95
2339;BME280;1180;51.438;6.978;2023-04-05T03:39:10;100978.41;;;5.54;67.47
2339;BME280;1180;51.438;6.978;2023-04-05T03:41:36;100973.53;;;5.44;67.90
2339;BME280;1180;51.438;6.978;2023-04-05T03:44:02;100975.19;;;5.47;67.91
2339;BME280;1180;51.438;6.978;2023-04-05T03:46:27;100970.06;;;5.48;68.14
2339;BME280;1180;51.438;6.978;2023-04-05T03:48:53;100976.88;;;5.46;68.18
2339;BME280;1180;51.438;6.978;2023-04-05T03:51:18;100973.69;;;5.40;67.92
2339;BME280;1180;51.438;6.978;2023-04-05T03:53:44;100972.19;;;5.32;67.72
2339;BME280;1180;51.438;6.978;2023-04-05T03:56:10;100975.88;;;5.20;69.32
2339;BME280;1180;51.438;6.978;2023-04-05T03:58:36;100970.78;;;5.20;69.54
2339;BME280;1180;51.438;6.978;2023-04-05T04:01:01;100968.19;;;5.22;69.34
2339;BME280;1180;51.438;6.978;2023-04-05T04:03:27;100974.16;;;5.21;69.20
2339;BME280;1180;51.438;6.978;2023-04-05T04:05:53;100967.53;;;5.15;69.21
2339;BME280;1180;51.438;6.978;2023-04-05T04:08:19;100969.22;;;5.15;68.98
2339;BME280;1180;51.438;6.978;2023-04-05T04:10:45;100967.66;;;5.09;69.39
2339;BME280;1180;51.438;6.978;2023-04-05T04:13:10;100975.88;;;5.20;69.58
2339;BME280;1180;51.438;6.978;2023-04-05T04:15:36;100971.75;;;5.15;69.13
2339;BME280;1180;51.438;6.978;2023-04-05T04:18:01;100967.53;;;5.14;68.61
2339;BME280;1180;51.438;6.978;2023-04-05T04:20:26;100973.53;;;5.11;69.42
2339;BME280;1180;51.438;6.978;2023-04-05T04:22:52;100965.63;;;5.22;69.53
2339;BME280;1180;51.438;6.978;2023-04-05T04:25:18;100967.31;;;5.23;69.60
2339;BME280;1180;51.438;6.978;2023-04-05T04:27:44;100964.91;;;5.18;69.98
2339;BME280;1180;51.438;6.978;2023-04-05T04:30:13;100972.41;;;5.23;69.90
2339;BME280;1180;51.438;6.978;2023-04-05T04:32:40;100969.13;;;5.18;69.53
2339;BME280;1180;51.438;6.978;2023-04-05T04:35:16;100967.88;;;5.00;70.25
2339;BME280;1180;51.438;6.978;2023-04-05T04:40:23;100966.31;;;4.94;70.16
2339;BME280;1180;51.438;6.978;2023-04-05T04:42:50;100965.78;;;5.16;69.69
2339;BME280;1180;51.438;6.978;2023-04-05T04:45:17;100970.16;;;5.11;69.55
2339;BME280;1180;51.438;6.978;2023-04-05T04:47:44;100973.81;;;5.00;70.42
2339;BME280;1180;51.438;6.978;2023-04-05T04:50:11;100971.47;;;4.91;71.21
2339;BME280;1180;51.438;6.978;2023-04-05T04:52:37;100970.09;;;4.77;72.13
2339;BME280;1180;51.438;6.978;2023-04-05T04:55:03;100969.88;;;4.87;71.77
2339;BME280;1180;51.438;6.978;2023-04-05T04:57:29;100972.44;;;4.87;71.40
2339;BME280;1180;51.438;6.978;2023-04-05T04:59:55;100964.22;;;4.75;71.16
2339;BME280;1180;51.438;6.978;2023-04-05T05:02:24;100968.50;;;4.73;71.67
2339;BME280;1180;51.438;6.978;2023-04-05T05:04:49;100966.84;;;4.71;71.57
2339;BME280;1180;51.438;6.978;2023-04-05T05:07:15;100977.47;;;4.51;72.59
2339;BME280;1180;51.438;6.978;2023-04-05T05:09:41;100974.63;;;4.66;71.81
2339;BME280;1180;51.438;6.978;2023-04-05T05:12:07;100971.06;;;4.73;71.77
2339;BME280;1180;51.438;6.978;2023-04-05T05:14:32;100971.31;;;4.61;72.03
2339;BME280;1180;51.438;6.978;2023-04-05T05:16:57;100967.25;;;4.54;72.82
2339;BME280;1180;51.438;6.978;2023-04-05T05:19:24;100972.19;;;4.60;73.04
2339;BME280;1180;51.438;6.978;2023-04-05T05:21:50;100966.72;;;4.77;72.71
2339;BME280;1180;51.438;6.978;2023-04-05T05:24:17;100964.63;;;4.57;73.29
2339;BME280;1180;51.438;6.978;2023-04-05T05:26:42;100966.78;;;4.74;72.95
2339;BME280;1180;51.438;6.978;2023-04-05T05:29:09;100962.78;;;4.65;72.51
2339;BME280;1180;51.438;6.978;2023-04-05T05:31:34;100971.78;;;4.79;72.76
2339;BME280;1180;51.438;6.978;2023-04-05T05:34:00;100970.97;;;4.76;72.82
2339;BME280;1180;51.438;6.978;2023-04-05T05:36:27;100973.84;;;4.61;73.11
2339;BME280;1180;51.438;6.978;2023-04-05T05:38:53;100972.44;;;4.49;74.12
2339;BME280;1180;51.438;6.978;2023-04-05T05:41:19;100969.63;;;4.60;73.62
2339;BME280;1180;51.438;6.978;2023-04-05T05:43:47;100966.06;;;4.69;73.85
2339;BME280;1180;51.438;6.978;2023-04-05T05:46:13;100971.31;;;4.61;74.30
2339;BME280;1180;51.438;6.978;2023-04-05T05:48:41;100967.88;;;4.63;74.04
2339;BME280;1180;51.438;6.978;2023-04-05T05:51:07;100973.94;;;4.58;74.78
2339;BME280;1180;51.438;6.978;2023-04-05T05:53:37;100972.88;;;4.68;74.52
2339;BME280;1180;51.438;6.978;2023-04-05T05:56:03;100972.88;;;4.67;74.51
2339;BME280;1180;51.438;6.978;2023-04-05T05:58:28;100971.31;;;4.61;73.89
2339;BME280;1180;51.438;6.978;2023-04-05T06:00:54;100969.13;;;4.83;72.94
2339;BME280;1180;51.438;6.978;2023-04-05T06:03:20;100972.34;;;4.90;71.84
2339;BME280;1180;51.438;6.978;2023-04-05T06:05:53;100972.94;;;5.01;71.24
2339;BME280;1180;51.438;6.978;2023-04-05T06:08:19;100963.16;;;5.20;70.65
2339;BME280;1180;51.438;6.978;2023-04-05T06:10:47;100964.38;;;5.04;70.27
2339;BME280;1180;51.438;6.978;2023-04-05T06:13:14;100970.97;;;5.13;70.04
2339;BME280;1180;51.438;6.978;2023-04-05T06:15:44;100970.41;;;5.01;69.80
2339;BME280;1180;51.438;6.978;2023-04-05T06:18:10;100965.97;;;5.08;69.97
2339;BME280;1180;51.438;6.978;2023-04-05T06:20:35;100972.00;;;5.05;70.21
2339;BME280;1180;51.438;6.978;2023-04-05T06:23:06;100972.47;;;5.20;69.78
2339;BME280;1180;51.438;6.978;2023-04-05T06:25:32;100960.13;;;5.39;69.21
2339;BME280;1180;51.438;6.978;2023-04-05T06:27:57;100963.31;;;5.47;68.16
2339;BME280;1180;51.438;6.978;2023-04-05T06:30:23;100968.25;;;5.54;66.54
2339;BME280;1180;51.438;6.978;2023-04-05T06:32:49;100972.41;;;5.56;66.13
2339;BME280;1180;51.438;6.978;2023-04-05T06:35:19;100969.75;;;5.59;65.80
2339;BME280;1180;51.438;6.978;2023-04-05T06:37:45;100965.84;;;5.79;65.34
2339;BME280;1180;51.438;6.978;2023-04-05T06:40:11;100962.31;;;5.85;64.89
2339;BME280;1180;51.438;6.978;2023-04-05T06:42:37;100963.00;;;5.90;64.77
2339;BME280;1180;51.438;6.978;2023-04-05T06:45:03;100959.78;;;5.83;64.59
2339;BME280;1180;51.438;6.978;2023-04-05T06:47:36;100961.19;;;5.93;64.57
2339;BME280;1180;51.438;6.978;2023-04-05T06:50:03;100956.50;;;6.11;64.26
2339;BME280;1180;51.438;6.978;2023-04-05T06:52:29;100954.44;;;6.22;63.61
2339;BME280;1180;51.438;6.978;2023-04-05T06:54:55;100958.56;;;6.27;62.99
2339;BME280;1180;51.438;6.978;2023-04-05T06:57:21;100963.81;;;6.22;61.76
2339;BME280;1180;51.438;6.978;2023-04-05T06:59:46;100962.66;;;6.32;61.70
2339;BME280;1180;51.438;6.978;2023-04-05T07:02:11;100948.72;;;6.44;60.50
2339;BME280;1180;51.438;6.978;2023-04-05T07:04:38;100950.72;;;6.63;59.34
2339;BME280;1180;51.438;6.978;2023-04-05T07:07:04;100954.66;;;6.72;57.83
2339;BME280;1180;51.438;6.978;2023-04-05T07:09:31;100955.88;;;6.87;57.61
2339;BME280;1180;51.438;6.978;2023-04-05T07:12:01;100959.63;;;7.03;57.50
2339;BME280;1180;51.438;6.978;2023-04-05T07:14:29;100954.25;;;7.11;56.93
2339;BME280;1180;51.438;6.978;2023-04-05T07:16:55;100954.22;;;7.13;55.80
2339;BME280;1180;51.438;6.978;2023-04-05T07:19:20;100956.44;;;7.22;56.08
2339;BME280;1180;51.438;6.978;2023-04-05T07:21:45;100953.59;;;7.31;55.92
2339;BME280;1180;51.438;6.978;2023-04-05T07:24:11;100945.16;;;7.29;56.02
2339;BME280;1180;51.438;6.978;2023-04-05T07:26:36;100950.72;;;7.41;55.39
2339;BME280;1180;51.438;6.978;2023-04-05T07:29:02;100952.94;;;7.50;54.21
2339;BME280;1180;51.438;6.978;2023-04-05T07:31:28;100957.63;;;7.62;53.23
2339;BME280;1180;51.438;6.978;2023-04-05T07:33:55;100949.56;;;7.73;52.99
2339;BME280;1180;51.438;6.978;2023-04-05T07:36:22;100950.97;;;7.82;53.73
2339;BME280;1180;51.438;6.978;2023-04-05T07:38:47;100955.03;;;7.88;53.48
2339;BME280;1180;51.438;6.978;2023-04-05T07:41:13;100951.38;;;7.93;52.96
2339;BME280;1180;51.438;6.978;2023-04-05T07:43:40;100947.28;;;7.89;51.36
2339;BME280;1180;51.438;6.978;2023-04-05T07:46:06;100952.97;;;7.98;51.69
2339;BME280;1180;51.438;6.978;2023-04-05T07:48:31;100956.69;;;7.89;50.89
2339;BME280;1180;51.438;6.978;2023-04-05T07:51:02;100952.84;;;7.53;50.83
2339;BME280;1180;51.438;6.978;2023-04-05T07:53:28;100950.94;;;7.34;51.36
2339;BME280;1180;51.438;6.978;2023-04-05T07:55:53;100946.50;;;7.40;50.93
2339;BME280;1180;51.438;6.978;2023-04-05T07:58:18;100947.44;;;7.37;50.85
2339;BME280;1180;51.438;6.978;2023-04-05T08:00:44;100954.75;;;7.72;50.60
2339;BME280;1180;51.438;6.978;2023-04-05T08:03:09;100950.75;;;7.64;49.66
2339;BME280;1180;51.438;6.978;2023-04-05T08:05:35;100956.22;;;7.54;48.93
2339;BME280;1180;51.438;6.978;2023-04-05T08:08:00;100962.38;;;7.48;49.74
2339;BME280;1180;51.438;6.978;2023-04-05T08:10:25;100961.63;;;7.70;48.94
2339;BME280;1180;51.438;6.978;2023-04-05T08:12:52;100954.53;;;8.02;48.58
2339;BME280;1180;51.438;6.978;2023-04-05T08:15:17;100951.38;;;7.93;48.60
2339;BME280;1180;51.438;6.978;2023-04-05T08:17:42;100953.84;;;7.73;49.32
2339;BME280;1180;51.438;6.978;2023-04-05T08:20:08;100953.94;;;7.93;49.35
2339;BME280;1180;51.438;6.978;2023-04-05T08:22:33;100955.75;;;7.68;49.28
2339;BME280;1180;51.438;6.978;2023-04-05T08:24:59;100951.84;;;7.81;49.75
2339;BME280;1180;51.438;6.978;2023-04-05T08:27:24;100953.25;;;7.90;49.92
2339;BME280;1180;51.438;6.978;2023-04-05T08:29:49;100951.72;;;8.08;49.46
2339;BME280;1180;51.438;6.978;2023-04-05T08:32:15;100951.97;;;8.24;48.65
2339;BME280;1180;51.438;6.978;2023-04-05T08:34:40;100951.22;;;8.44;48.47
2339;BME280;1180;51.438;6.978;2023-04-05T08:37:06;100949.31;;;8.72;48.22
2339;BME280;1180;51.438;6.978;2023-04-05T08:39:34;100940.94;;;8.89;47.90
2339;BME280;1180;51.438;6.978;2023-04-05T08:42:07;100944.91;;;8.75;47.83
2339;BME280;1180;51.438;6.978;2023-04-05T08:44:36;100934.72;;;8.53;48.00
2339;BME280;1180;51.438;6.978;2023-04-05T08:47:01;100938.25;;;8.71;48.34
2339;BME280;1180;51.438;6.978;2023-04-05T08:49:27;100946.69;;;8.29;48.22
2339;BME280;1180;51.438;6.978;2023-04-05T08:51:53;100943.25;;;8.30;47.50
2339;BME280;1180;51.438;6.978;2023-04-05T08:54:19;100944.59;;;8.16;47.55
2339;BME280;1180;51.438;6.978;2023-04-05T08:56:46;100939.44;;;8.40;47.95
2339;BME280;1180;51.438;6.978;2023-04-05T08:59:15;100936.28;;;8.56;47.43
2339;BME280;1180;51.438;6.978;2023-04-05T09:01:42;100934.50;;;8.58;47.69
2339;BME280;1180;51.438;6.978;2023-04-05T09:04:13;100941.44;;;8.76;47.39
2339;BME280;1180;51.438;6.978;2023-04-05T09:06:39;100933.88;;;9.16;47.31
2339;BME280;1180;51.438;6.978;2023-04-05T09:09:06;100933.78;;;9.38;47.17
2339;BME280;1180;51.438;6.978;2023-04-05T09:11:33;100933.84;;;9.56;46.41
2339;BME280;1180;51.438;6.978;2023-04-05T09:13:58;100926.38;;;9.12;46.39
2339;BME280;1180;51.438;6.978;2023-04-05T09:16:24;100927.72;;;9.00;46.20
2339;BME280;1180;51.438;6.978;2023-04-05T09:18:51;100924.63;;;8.91;46.28
2339;BME280;1180;51.438;6.978;2023-04-05T09:21:17;100925.66;;;8.87;46.60
2339;BME280;1180;51.438;6.978;2023-04-05T09:23:51;100923.03;;;9.09;46.38
2339;BME280;1180;51.438;6.978;2023-04-05T09:26:24;100925.50;;;9.32;45.99
2339;BME280;1180;51.438;6.978;2023-04-05T09:28:50;100929.75;;;9.52;45.56
2339;BME280;1180;51.438;6.978;2023-04-05T09:31:35;100921.75;;;9.60;45.54
2339;BME280;1180;51.438;6.978;2023-04-05T09:34:04;100922.03;;;9.73;44.40
2339;BME280;1180;51.438;6.978;2023-04-05T09:36:32;100919.00;;;9.83;44.64
2339;BME280;1180;51.438;6.978;2023-04-05T09:39:08;100919.00;;;9.24;44.66
2339;BME280;1180;51.438;6.978;2023-04-05T09:41:35;100918.03;;;9.06;45.85
2339;BME280;1180;51.438;6.978;2023-04-05T09:44:01;100919.72;;;9.07;46.51
2339;BME280;1180;51.438;6.978;2023-04-05T09:46:34;100926.75;;;9.42;46.10
2339;BME280;1180;51.438;6.978;2023-04-05T09:49:02;100914.75;;;9.63;45.35
2339;BME280;1180;51.438;6.978;2023-04-05T09:51:36;100928.78;;;9.35;44.47
2339;BME280;1180;51.438;6.978;2023-04-05T09:54:11;100918.81;;;9.29;45.26
2339;BME280;1180;51.438;6.978;2023-04-05T09:56:38;100924.19;;;9.02;44.90
2339;BME280;1180;51.438;6.978;2023-04-05T09:59:08;100925.09;;;9.01;45.58
2339;BME280;1180;51.438;6.978;2023-04-05T10:01:38;100919.25;;;9.58;45.21
2339;BME280;1180;51.438;6.978;2023-04-05T10:04:03;100916.91;;;9.92;44.58
2339;BME280;1180;51.438;6.978;2023-04-05T10:06:37;100914.03;;;10.17;44.90
2339;BME280;1180;51.438;6.978;2023-04-05T10:09:04;100907.28;;;10.34;44.27
2339;BME280;1180;51.438;6.978;2023-04-05T10:11:34;100912.03;;;10.61;43.37
2339;BME280;1180;51.438;6.978;2023-04-05T10:14:06;100910.78;;;10.50;42.30
2339;BME280;1180;51.438;6.978;2023-04-05T10:16:40;100902.72;;;9.85;43.35
2339;BME280;1180;51.438;6.978;2023-04-05T10:19:15;100901.16;;;10.00;43.08
2339;BME280;1180;51.438;6.978;2023-04-05T10:21:46;100896.38;;;10.11;42.83
2339;BME280;1180;51.438;6.978;2023-04-05T10:27:04;100891.94;;;10.15;41.22
2339;BME280;1180;51.438;6.978;2023-04-05T10:29:49;100899.50;;;9.99;42.07
2339;BME280;1180;51.438;6.978;2023-04-05T10:35:20;100883.88;;;9.66;41.47
2339;BME280;1180;51.438;6.978;2023-04-05T10:40:46;100876.84;;;10.63;40.53
2339;BME280;1180;51.438;6.978;2023-04-05T10:43:16;100879.97;;;11.03;39.81
2339;BME280;1180;51.438;6.978;2023-04-05T10:45:44;100885.31;;;11.16;40.18
2339;BME280;1180;51.438;6.978;2023-04-05T10:48:58;100885.81;;;11.23;39.89
2339;BME280;1180;51.438;6.978;2023-04-05T10:51:16;100874.78;;;10.87;40.22
2339;BME280;1180;51.438;6.978;2023-04-05T10:53:44;100879.31;;;11.16;40.06
2339;BME280;1180;51.438;6.978;2023-04-05T10:56:11;100874.50;;;11.09;38.53
2339;BME280;1180;51.438;6.978;2023-04-05T10:58:37;100870.56;;;11.20;38.30
2339;BME280;1180;51.438;6.978;2023-04-05T11:01:05;100866.00;;;11.25;38.19
2339;BME280;1180;51.438;6.978;2023-04-05T11:06:30;100850.50;;;11.26;39.38
2339;BME280;1180;51.438;6.978;2023-04-05T11:09:09;100854.72;;;11.11;39.47
2339;BME280;1180;51.438;6.978;2023-04-05T11:11:53;100856.09;;;11.01;38.77
2339;BME280;1180;51.438;6.978;2023-04-05T11:14:22;100856.78;;;11.21;39.40
2339;BME280;1180;51.438;6.978;2023-04-05T11:16:54;100852.03;;;11.47;39.22
2339;BME280;1180;51.438;6.978;2023-04-05T11:22:10;100847.38;;;10.70;41.11
2339;BME280;1180;51.438;6.978;2023-04-05T11:24:51;100851.47;;;11.08;40.62
2339;BME280;1180;51.438;6.978;2023-04-05T11:27:27;100855.13;;;11.20;40.01
2339;BME280;1180;51.438;6.978;2023-04-05T11:29:53;100853.34;;;11.38;40.06
2339;BME280;1180;51.438;6.978;2023-04-05T11:32:20;100850.53;;;11.59;39.70
2339;BME280;1180;51.438;6.978;2023-04-05T11:34:59;100837.75;;;11.89;39.47
2339;BME280;1180;51.438;6.978;2023-04-05T11:40:28;100847.72;;;11.95;37.81
2339;BME280;1180;51.438;6.978;2023-04-05T11:43:08;100845.91;;;11.65;40.26
2339;BME280;1180;51.438;6.978;2023-04-05T11:45:36;100836.19;;;11.87;39.01
2339;BME280;1180;51.438;6.978;2023-04-05T11:48:06;100836.50;;;11.96;39.12
2339;BME280;1180;51.438;6.978;2023-04-05T11:50:33;100830.94;;;12.04;38.12
2339;BME280;1180;51.438;6.978;2023-04-05T11:53:15;100828.09;;;12.25;38.04
2339;BME280;1180;51.438;6.978;2023-04-05T11:55:49;100827.09;;;12.27;36.75
2339;BME280;1180;51.438;6.978;2023-04-05T11:58:21;100826.44;;;12.24;37.02
2339;BME280;1180;51.438;6.978;2023-04-05T12:01:00;100823.16;;;12.06;37.21
2339;BME280;1180;51.438;6.978;2023-04-05T12:03:26;100820.06;;;12.15;37.39
2339;BME280;1180;51.438;6.978;2023-04-05T12:05:57;100820.53;;;12.22;36.59
2339;BME280;1180;51.438;6.978;2023-04-05T12:08:43;100809.41;;;11.75;36.48
2339;BME280;1180;51.438;6.978;2023-04-05T12:11:24;100814.28;;;11.95;37.25
2339;BME280;1180;51.438;6.978;2023-04-05T12:14:01;100798.94;;;12.24;36.63
2339;BME280;1180;51.438;6.978;2023-04-05T12:16:27;100798.06;;;12.54;36.55
2339;BME280;1180;51.438;6.978;2023-04-05T12:18:57;100800.47;;;12.57;35.67
2339;BME280;1180;51.438;6.978;2023-04-05T12:21:26;100803.75;;;12.45;36.48
2339;BME280;1180;51.438;6.978;2023-04-05T12:23:53;100796.34;;;12.55;36.12
2339;BME280;1180;51.438;6.978;2023-04-05T12:26:20;100804.25;;;12.52;35.90
2339;BME280;1180;51.438;6.978;2023-04-05T12:31:15;100789.53;;;12.68;35.55
2339;BME280;1180;51.438;6.978;2023-04-05T12:33:42;100795.72;;;12.66;35.54
2339;BME280;1180;51.438;6.978;2023-04-05T12:36:08;100785.50;;;12.50;35.33
2339;BME280;1180;51.438;6.978;2023-04-05T12:38:36;100790.38;;;12.83;35.60
2339;BME280;1180;51.438;6.978;2023-04-05T12:41:03;100789.16;;;12.75;34.67
2339;BME280;1180;51.438;6.978;2023-04-05T12:43:39;100791.00;;;12.44;35.13
2339;BME280;1180;51.438;6.978;2023-04-05T12:46:16;100776.97;;;12.19;35.48
2339;BME280;1180;51.438;6.978;2023-04-05T12:48:41;100774.78;;;11.96;35.74
2339;BME280;1180;51.438;6.978;2023-04-05T12:51:14;100764.78;;;12.37;35.58
2339;BME280;1180;51.438;6.978;2023-04-05T12:53:44;100766.34;;;12.68;35.60
2339;BME280;1180;51.438;6.978;2023-04-05T12:56:15;100762.56;;;13.03;35.43
2339;BME280;1180;51.438;6.978;2023-04-05T12:58:40;100766.34;;;13.12;35.27
2339;BME280;1180;51.438;6.978;2023-04-05T13:01:06;100757.91;;;13.23;34.40
2339;BME280;1180;51.438;6.978;2023-04-05T13:03:33;100755.78;;;13.29;34.66
2339;BME280;1180;51.438;6.978;2023-04-05T13:05:58;100752.72;;;13.52;34.87
2339;BME280;1180;51.438;6.978;2023-04-05T13:08:24;100753.81;;;13.75;34.29
2339;BME280;1180;51.438;6.978;2023-04-05T13:10:51;100747.06;;;14.00;33.93
2339;BME280;1180;51.438;6.978;2023-04-05T13:13:17;100742.03;;;14.11;35.06
2339;BME280;1180;51.438;6.978;2023-04-05T13:15:45;100747.19;;;13.71;33.76
2339;BME280;1180;51.438;6.978;2023-04-05T13:18:11;100737.94;;;13.26;35.23
2339;BME280;1180;51.438;6.978;2023-04-05T13:20:42;100747.13;;;13.72;49.32
2339;BME280;1180;51.438;6.978;2023-04-05T13:23:08;100743.66;;;14.38;51.05
2339;BME280;1180;51.438;6.978;2023-04-05T13:25:37;100737.34;;;14.55;38.94
2339;BME280;1180;51.438;6.978;2023-04-05T13:28:02;100735.72;;;14.54;37.19
2339;BME280;1180;51.438;6.978;2023-04-05T13:30:29;100725.81;;;14.74;35.00
2339;BME280;1180;51.438;6.978;2023-04-05T13:32:54;100730.56;;;15.05;42.86
2339;BME280;1180;51.438;6.978;2023-04-05T13:35:20;100721.25;;;15.39;35.71
2339;BME280;1180;51.438;6.978;2023-04-05T13:37:45;100724.28;;;14.33;33.57
2339;BME280;1180;51.438;6.978;2023-04-05T13:40:11;100725.38;;;14.41;34.15
2339;BME280;1180;51.438;6.978;2023-04-05T13:42:36;100718.78;;;13.85;33.64
2339;BME280;1180;51.438;6.978;2023-04-05T13:45:03;100708.19;;;13.63;33.79
2339;BME280;1180;51.438;6.978;2023-04-05T13:47:29;100713.63;;;13.03;34.75
2339;BME280;1180;51.438;6.978;2023-04-05T13:49:55;100708.28;;;13.06;34.64
2339;BME280;1180;51.438;6.978;2023-04-05T13:52:20;100702.59;;;13.56;34.79
2339;BME280;1180;51.438;6.978;2023-04-05T13:54:46;100699.38;;;14.06;34.41